Time;durP1;ratioP1;P1;durP2;ratioP2;P2;SDS_P1;SDS_P2;PMS_P1;PMS_P2;Temp;Humidity;BMP_temperature;BMP_pressure;BME280_temperature;BME280_humidity;BME280_pressure;Samples;Min_cycle;Max_cycle;Signal;HPM_P1;HPM_P2
2022/07/19 00:01:08;;;;;;;4.50;2.78;;;;;;;20.69;48.10;99874.31;5007984;28;20125;-65
2022/07/19 00:03:34;;;;;;;5.53;3.28;;;;;;;20.68;47.72;99870.81;5023903;28;20045;-65
2022/07/19 00:06:01;;;;;;;4.53;2.28;;;;;;;20.68;47.45;99870.81;5023525;28;20049;-65
2022/07/19 00:08:27;;;;;;;6.90;2.78;;;;;;;20.68;47.52;99868.13;5024494;28;20053;-64
2022/07/19 00:10:54;;;;;;;5.88;3.38;;;;;;;20.70;47.86;99868.84;5024374;28;20103;-65
2022/07/19 00:13:22;;;;;;;3.67;2.30;;;;;;;20.70;48.02;99876.00;5027892;28;20056;-63
2022/07/19 00:15:49;;;;;;;3.90;2.53;;;;;;;20.66;48.48;99871.94;5027034;28;20183;-66
2022/07/19 00:18:16;;;;;;;8.13;2.85;;;;;;;20.58;48.38;99868.09;5027438;28;20053;-65
2022/07/19 00:20:42;;;;;;;4.60;2.30;;;;;;;20.57;48.27;99871.75;5027202;28;20053;-65
2022/07/19 00:23:09;;;;;;;4.47;2.40;;;;;;;20.55;48.28;99868.38;5027331;28;20053;-65
2022/07/19 00:25:35;;;;;;;6.07;2.33;;;;;;;20.44;49.10;99867.59;5027550;28;20053;-65
2022/07/19 00:28:02;;;;;;;5.97;2.85;;;;;;;20.34;49.44;99859.53;5028042;28;20045;-65
2022/07/19 00:30:30;;;;;;;5.20;2.78;;;;;;;20.25;49.51;99863.03;5028352;28;20061;-65
2022/07/19 00:32:56;;;;;;;5.47;2.40;;;;;;;20.21;49.77;99854.44;5028196;28;20050;-65
2022/07/19 00:35:23;;;;;;;7.82;2.67;;;;;;;20.16;49.72;99856.69;5026782;28;20053;-65
2022/07/19 00:37:50;;;;;;;5.20;2.80;;;;;;;20.09;49.95;99853.69;5027605;28;20045;-65
2022/07/19 00:40:22;;;;;;;7.90;2.60;;;;;;;20.10;49.11;99850.00;5027100;28;20056;-65
2022/07/19 00:42:49;;;;;;;9.57;2.20;;;;;;;20.10;50.17;99854.53;5027046;28;20046;-65
2022/07/19 00:45:15;;;;;;;9.15;2.63;;;;;;;20.04;49.74;99852.41;5026414;28;20060;-65
2022/07/19 00:47:43;;;;;;;3.00;2.47;;;;;;;20.04;50.03;99849.72;5026708;28;20083;-65
2022/07/19 00:50:10;;;;;;;4.85;2.85;;;;;;;20.07;49.67;99846.78;5026865;28;20056;-65
2022/07/19 00:52:39;;;;;;;5.72;2.63;;;;;;;20.08;49.39;99849.31;5027462;28;20049;-65
2022/07/19 00:55:07;;;;;;;4.53;2.33;;;;;;;20.06;49.63;99845.94;5026645;28;20053;-65
2022/07/19 00:57:37;;;;;;;3.78;2.78;;;;;;;19.93;50.44;99838.09;5025990;28;20049;-65
2022/07/19 01:00:05;;;;;;;5.00;2.35;;;;;;;19.91;49.94;99842.78;5019095;28;20052;-65
2022/07/19 01:02:32;;;;;;;4.80;2.40;;;;;;;19.90;49.98;99835.72;5018385;28;20056;-65
2022/07/19 01:05:00;;;;;;;7.03;2.83;;;;;;;19.86;50.67;99839.66;5006280;28;20078;-65
2022/07/19 01:07:27;;;;;;;6.82;2.67;;;;;;;19.87;49.90;99833.31;5006962;28;21159;-65
2022/07/19 01:09:54;;;;;;;6.05;2.42;;;;;;;19.82;50.79;99832.88;5006991;28;20050;-64
2022/07/19 01:12:22;;;;;;;4.35;2.05;;;;;;;19.75;51.23;99831.69;5006709;28;20394;-65
2022/07/19 01:14:49;;;;;;;4.50;2.40;;;;;;;19.72;51.06;99832.81;5006195;28;20476;-64
2022/07/19 01:17:15;;;;;;;3.90;2.42;;;;;;;19.70;50.74;99826.75;5016320;28;20508;-64
2022/07/19 01:19:42;;;;;;;5.43;2.17;;;;;;;19.69;50.78;99822.41;5026779;28;20493;-66
2022/07/19 01:22:11;;;;;;;7.47;2.83;;;;;;;19.73;50.70;99825.63;5026725;28;20053;-65
2022/07/19 01:24:37;;;;;;;6.97;2.95;;;;;;;19.65;51.00;99815.56;5025936;28;20125;-66
2022/07/19 01:27:05;;;;;;;7.43;2.60;;;;;;;19.62;51.06;99812.34;5025962;28;20152;-65
2022/07/19 01:29:32;;;;;;;4.55;2.55;;;;;;;19.59;50.95;99818.78;5026479;28;20079;-65
2022/07/19 01:31:58;;;;;;;6.75;3.40;;;;;;;19.58;51.16;99816.25;5026402;28;20045;-65
2022/07/19 01:34:25;;;;;;;4.10;2.47;;;;;;;19.56;51.36;99802.16;5023225;28;20057;-65
2022/07/19 01:36:52;;;;;;;6.97;2.38;;;;;;;19.49;52.05;99807.16;5022769;28;20056;-65
2022/07/19 01:39:20;;;;;;;7.72;2.33;;;;;;;19.48;51.99;99814.34;5006027;28;20140;-65
2022/07/19 01:41:46;;;;;;;4.63;2.28;;;;;;;19.47;52.08;99807.31;5024111;28;20053;-65
2022/07/19 01:44:13;;;;;;;4.80;2.35;;;;;;;19.44;52.20;99806.72;5025142;28;20050;-65
2022/07/19 01:46:40;;;;;;;7.80;2.65;;;;;;;19.43;52.23;99808.56;5026183;28;20053;-65
2022/07/19 01:49:07;;;;;;;5.40;2.38;;;;;;;19.46;52.30;99805.59;5026521;28;20053;-65
2022/07/19 01:51:33;;;;;;;6.93;3.00;;;;;;;19.46;52.14;99802.09;5026121;28;20053;-65
2022/07/19 01:54:00;;;;;;;6.25;3.10;;;;;;;19.48;52.32;99800.97;5025284;28;20053;-65
2022/07/19 01:56:28;;;;;;;5.63;2.80;;;;;;;19.52;52.16;99798.91;5025775;28;20136;-65
2022/07/19 01:58:54;;;;;;;6.95;3.42;;;;;;;19.54;51.81;99796.91;5025511;28;20513;-65
2022/07/19 02:01:21;;;;;;;5.65;2.97;;;;;;;19.55;51.85;99803.13;5025791;28;20060;-65
2022/07/19 02:03:48;;;;;;;3.80;2.55;;;;;;;19.52;51.83;99793.56;5025658;28;20049;-65
2022/07/19 02:06:14;;;;;;;4.90;3.20;;;;;;;19.49;51.78;99793.78;5024550;28;20841;-65
2022/07/19 02:08:41;;;;;;;9.45;3.08;;;;;;;19.44;52.16;99793.34;5025412;28;20060;-65
2022/07/19 02:13:51;;;;;;;5.47;2.78;;;;;;;19.34;52.86;99787.09;5025059;28;20049;-65
2022/07/19 02:16:17;;;;;;;6.43;2.75;;;;;;;19.31;53.15;99785.53;5025143;28;20053;-64
2022/07/19 02:18:44;;;;;;;6.90;2.92;;;;;;;19.30;52.93;99786.53;5025272;28;20133;-65
2022/07/19 02:21:10;;;;;;;6.68;3.10;;;;;;;19.31;52.74;99786.38;5025550;28;20060;-65
2022/07/19 02:23:37;;;;;;;4.03;2.42;;;;;;;19.30;52.94;99790.03;5025773;28;20049;-65
2022/07/19 02:26:03;;;;;;;4.68;2.90;;;;;;;19.32;53.00;99787.25;5024882;28;20049;-65
2022/07/19 02:28:30;;;;;;;10.23;2.83;;;;;;;19.33;52.87;99790.78;5024985;28;20053;-65
2022/07/19 02:30:58;;;;;;;4.32;2.50;;;;;;;19.29;53.25;99784.81;5025141;28;20068;-65
2022/07/19 02:33:24;;;;;;;8.57;2.75;;;;;;;19.30;52.97;99781.19;5024797;28;20060;-65
2022/07/19 02:35:51;;;;;;;6.22;2.78;;;;;;;19.28;53.35;99775.13;5024438;28;20751;-65
2022/07/19 02:38:18;;;;;;;4.55;2.50;;;;;;;19.30;53.16;99783.84;5026963;28;20061;-65
2022/07/19 02:40:44;;;;;;;8.07;3.25;;;;;;;19.27;53.10;99782.31;5026759;28;20044;-65
2022/07/19 02:43:11;;;;;;;5.38;2.13;;;;;;;19.29;53.21;99779.47;5026565;28;20059;-64
2022/07/19 02:45:37;;;;;;;5.25;2.50;;;;;;;19.28;53.14;99778.63;5026116;28;20049;-64
2022/07/19 02:48:05;;;;;;;5.82;2.70;;;;;;;19.28;52.76;99783.97;5026701;28;20049;-64
2022/07/19 02:50:32;;;;;;;6.45;3.17;;;;;;;19.28;52.89;99775.97;5026324;28;20059;-64
2022/07/19 02:52:59;;;;;;;4.13;2.58;;;;;;;19.28;52.95;99783.97;5026224;28;20045;-64
2022/07/19 02:55:25;;;;;;;3.67;2.42;;;;;;;19.28;53.10;99780.47;5018125;28;20552;-63
2022/07/19 02:57:52;;;;;;;4.25;2.65;;;;;;;19.25;52.88;99783.41;5005061;28;20501;-64
2022/07/19 03:00:19;;;;;;;3.60;2.35;;;;;;;19.24;53.18;99787.88;5005222;28;20084;-64
2022/07/19 03:02:45;;;;;;;7.25;3.20;;;;;;;19.19;53.07;99778.56;5004250;28;20049;-64
2022/07/19 03:05:13;;;;;;;5.55;2.58;;;;;;;19.17;53.01;99784.03;5003979;28;20054;-63
2022/07/19 03:07:40;;;;;;;8.48;2.85;;;;;;;19.16;53.61;99790.38;5006186;28;20527;-65
2022/07/19 03:10:07;;;;;;;3.28;2.60;;;;;;;19.13;53.33;99787.97;5018495;28;20053;-64
2022/07/19 03:12:33;;;;;;;10.63;2.78;;;;;;;19.14;53.64;99788.81;5024867;28;20055;-65
2022/07/19 03:15:00;;;;;;;6.43;2.75;;;;;;;19.08;53.44;99793.69;5024032;28;20049;-64
2022/07/19 03:17:27;;;;;;;3.50;2.10;;;;;;;19.08;53.56;99784.84;5024241;28;20140;-65
2022/07/19 03:19:53;;;;;;;4.10;2.40;;;;;;;19.06;53.95;99782.28;5024445;28;20057;-65
2022/07/19 03:22:21;;;;;;;7.32;2.85;;;;;;;19.03;53.99;99785.22;5024431;28;20053;-65
2022/07/19 03:24:48;;;;;;;7.18;3.42;;;;;;;18.99;54.16;99780.25;5023615;28;20412;-64
2022/07/19 03:27:15;;;;;;;4.65;2.70;;;;;;;18.97;54.46;99783.06;5023850;28;20056;-65
2022/07/19 03:29:41;;;;;;;6.00;3.63;;;;;;;18.98;54.49;99782.09;5023906;28;20084;-65
2022/07/19 03:32:08;;;;;;;4.25;1.95;;;;;;;18.97;54.66;99783.06;5025293;28;20525;-64
2022/07/19 03:34:34;;;;;;;6.72;2.42;;;;;;;18.97;54.42;99784.88;5025181;28;20048;-64
2022/07/19 03:37:01;;;;;;;5.05;2.65;;;;;;;18.97;54.22;99791.06;5024362;28;20851;-64
2022/07/19 03:39:29;;;;;;;5.13;2.63;;;;;;;19.00;54.04;99790.84;5024361;28;20050;-63
2022/07/19 03:41:55;;;;;;;6.57;2.92;;;;;;;19.01;54.12;99786.34;5024196;28;20521;-65
2022/07/19 03:44:22;;;;;;;7.97;2.67;;;;;;;19.02;54.31;99788.84;5023527;28;20060;-66
2022/07/19 03:46:48;;;;;;;9.93;3.60;;;;;;;19.03;54.26;99787.91;5027559;28;20549;-65
2022/07/19 03:49:15;;;;;;;7.25;3.25;;;;;;;19.04;53.95;99788.75;5028204;28;20528;-65
2022/07/19 03:51:41;;;;;;;5.22;3.03;;;;;;;19.05;54.12;99787.75;5028831;28;20049;-64
2022/07/19 03:54:08;;;;;;;6.43;2.45;;;;;;;19.05;53.98;99790.41;5028521;28;20056;-65
2022/07/19 03:56:36;;;;;;;3.95;2.75;;;;;;;19.04;54.25;99784.25;5028063;28;20049;-64
2022/07/19 03:59:04;;;;;;;5.40;2.88;;;;;;;19.03;54.21;99787.91;5027832;28;20700;-63
2022/07/19 04:01:31;;;;;;;5.15;2.58;;;;;;;19.01;54.12;99789.00;5028428;28;20054;-64
2022/07/19 04:03:57;;;;;;;9.65;2.63;;;;;;;19.02;54.07;99796.88;5027961;28;20069;-64
2022/07/19 04:06:24;;;;;;;4.55;2.95;;;;;;;19.06;54.18;99792.13;5027956;28;20576;-65
2022/07/19 04:08:50;;;;;;;4.28;2.53;;;;;;;19.06;53.94;99790.31;5027370;28;20505;-65
2022/07/19 04:11:17;;;;;;;4.38;2.45;;;;;;;19.08;53.84;99795.53;5027884;28;20084;-65
2022/07/19 04:13:45;;;;;;;5.15;2.45;;;;;;;19.09;53.73;99787.38;5027865;28;20065;-65
2022/07/19 04:16:11;;;;;;;5.07;2.88;;;;;;;19.09;53.63;99790.03;5027243;28;20053;-65
2022/07/19 04:18:38;;;;;;;5.65;3.67;;;;;;;19.13;53.84;99781.78;5028849;28;20049;-65
2022/07/19 04:21:05;;;;;;;3.88;2.70;;;;;;;19.13;53.84;99795.16;5027924;28;20053;-65
2022/07/19 04:23:32;;;;;;;6.75;3.92;;;;;;;19.15;53.90;99785.16;5027756;28;20084;-64
2022/07/19 04:25:59;;;;;;;6.25;2.65;;;;;;;19.16;54.28;99790.38;5026764;28;20057;-65
2022/07/19 04:28:25;;;;;;;6.03;3.45;;;;;;;19.17;53.93;99784.03;5027745;28;20382;-65
2022/07/19 04:30:53;;;;;;;9.75;3.13;;;;;;;19.17;54.50;99778.69;5027765;28;20068;-64
2022/07/19 04:33:20;;;;;;;7.47;3.17;;;;;;;19.20;54.72;99777.63;5027571;28;20148;-64
2022/07/19 04:35:47;;;;;;;7.53;3.08;;;;;;;19.22;54.61;99786.31;5026393;28;20464;-65
2022/07/19 04:38:14;;;;;;;6.15;2.85;;;;;;;19.24;54.76;99781.69;5027435;28;20052;-65
2022/07/19 04:40:40;;;;;;;6.25;2.78;;;;;;;19.28;54.57;99783.13;5027556;28;20049;-65
2022/07/19 04:43:07;;;;;;;9.38;2.90;;;;;;;19.33;54.55;99772.06;5027210;28;20075;-64
2022/07/19 04:45:34;;;;;;;6.88;2.85;;;;;;;19.38;54.28;99777.84;5026557;28;20049;-65
2022/07/19 04:48:02;;;;;;;4.63;2.45;;;;;;;19.44;54.12;99788.00;5027422;28;20045;-66
2022/07/19 04:50:28;;;;;;;5.90;2.83;;;;;;;19.48;54.04;99774.25;5026946;28;20049;-65
2022/07/19 04:52:55;;;;;;;4.13;2.80;;;;;;;19.57;54.01;99782.47;5026960;28;20056;-65
2022/07/19 04:55:22;;;;;;;5.65;2.90;;;;;;;19.62;54.39;99782.91;5026401;28;20064;-65
2022/07/19 04:57:48;;;;;;;5.78;2.92;;;;;;;19.67;54.65;99786.03;5025905;28;20052;-64
2022/07/19 05:00:15;;;;;;;6.30;2.72;;;;;;;19.75;54.15;99782.72;5026883;28;20060;-64
2022/07/19 05:02:42;;;;;;;5.47;3.00;;;;;;;19.84;54.39;99779.22;5026670;28;20046;-64
2022/07/19 05:05:10;;;;;;;8.27;3.47;;;;;;;19.91;54.80;99775.00;5026846;28;20050;-65
2022/07/19 05:07:37;;;;;;;4.13;2.92;;;;;;;19.99;54.61;99774.34;5027119;28;20523;-64
2022/07/19 05:10:04;;;;;;;10.48;7.15;;;;;;;20.07;55.48;99772.69;5026587;28;20187;-64
2022/07/19 05:12:31;;;;;;;10.73;3.75;;;;;;;20.16;55.23;99768.34;5026923;28;20489;-65
2022/07/19 05:14:58;;;;;;;4.22;2.78;;;;;;;20.27;55.30;99767.38;5026166;28;20063;-64
2022/07/19 05:17:25;;;;;;;5.88;3.50;;;;;;;20.37;55.45;99762.88;5026748;28;20126;-65
2022/07/19 05:19:51;;;;;;;7.25;3.35;;;;;;;20.48;55.25;99764.59;5026648;28;20056;-64
2022/07/19 05:22:19;;;;;;;6.53;3.80;;;;;;;20.60;54.99;99760.81;5026793;28;20049;-66
2022/07/19 05:24:46;;;;;;;5.63;2.70;;;;;;;20.71;54.88;99763.34;5024971;28;20057;-63
2022/07/19 05:27:12;;;;;;;6.68;3.00;;;;;;;20.81;55.06;99763.34;5026200;28;20133;-64
2022/07/19 05:29:39;;;;;;;5.00;2.85;;;;;;;20.94;54.72;99766.56;5026447;28;20060;-66
2022/07/19 05:32:06;;;;;;;8.50;3.53;;;;;;;21.06;55.27;99761.06;5026420;28;20058;-66
2022/07/19 05:34:32;;;;;;;5.93;3.97;;;;;;;21.16;55.15;99761.88;5025281;28;20523;-65
2022/07/19 05:36:59;;;;;;;9.95;4.03;;;;;;;21.26;55.48;99765.41;5025946;28;20501;-66
2022/07/19 05:39:27;;;;;;;13.60;4.35;;;;;;;21.34;55.51;99765.53;5025936;28;20053;-65
2022/07/19 05:41:53;;;;;;;9.20;3.17;;;;;;;21.46;55.26;99768.06;5026440;28;20076;-65
2022/07/19 05:44:21;;;;;;;10.43;3.13;;;;;;;21.54;55.33;99766.34;5025926;28;20427;-65
2022/07/19 05:46:48;;;;;;;7.90;3.53;;;;;;;21.62;55.48;99771.81;5026144;28;20046;-63
2022/07/19 05:49:14;;;;;;;5.63;3.17;;;;;;;21.75;55.28;99771.47;5025911;28;20059;-64
2022/07/19 05:51:42;;;;;;;6.13;3.53;;;;;;;21.87;54.58;99766.78;5026531;28;20053;-64
2022/07/19 05:54:09;;;;;;;5.40;3.45;;;;;;;21.98;54.96;99774.66;5025498;28;20049;-65
2022/07/19 05:56:37;;;;;;;10.93;3.40;;;;;;;22.11;54.67;99773.44;5025818;28;20045;-65
2022/07/19 05:59:03;;;;;;;8.55;3.33;;;;;;;22.24;54.46;99771.25;5025854;28;20049;-65
2022/07/19 06:01:30;;;;;;;5.22;3.03;;;;;;;22.40;54.50;99775.97;5025402;28;20048;-65
2022/07/19 06:03:59;;;;;;;7.20;3.85;;;;;;;22.54;53.62;99777.28;5025346;28;20049;-65
2022/07/19 06:06:27;;;;;;;10.15;4.82;;;;;;;22.67;53.42;99777.78;5025698;28;20607;-65
2022/07/19 06:08:54;;;;;;;12.55;4.43;;;;;;;22.79;53.66;99775.66;5024409;28;20050;-65
2022/07/19 06:11:20;;;;;;;6.93;3.53;;;;;;;22.89;54.10;99776.44;5025007;28;20095;-65
2022/07/19 06:13:49;;;;;;;6.95;3.80;;;;;;;22.99;53.31;99777.22;5025656;28;20046;-64
2022/07/19 06:16:16;;;;;;;6.78;3.22;;;;;;;23.09;54.25;99783.38;5024496;28;20060;-65
2022/07/19 06:18:43;;;;;;;7.13;3.35;;;;;;;23.22;53.72;99780.25;5025526;28;20045;-66
2022/07/19 06:21:11;;;;;;;9.13;4.22;;;;;;;23.36;52.45;99779.69;5025484;28;20049;-64
2022/07/19 06:23:39;;;;;;;5.10;3.83;;;;;;;23.53;52.13;99777.09;5025539;28;20072;-64
2022/07/19 06:26:06;;;;;;;12.55;4.00;;;;;;;23.72;52.80;99774.16;5024423;28;20421;-64
2022/07/19 06:28:33;;;;;;;6.65;3.85;;;;;;;23.86;50.73;99777.31;5025070;28;20049;-65
2022/07/19 06:31:01;;;;;;;7.43;3.65;;;;;;;23.97;51.18;99775.16;5024865;28;20504;-64
2022/07/19 06:33:28;;;;;;;7.40;3.72;;;;;;;24.10;51.97;99772.00;5025351;28;20049;-65
2022/07/19 06:35:54;;;;;;;4.93;3.45;;;;;;;24.25;51.47;99774.09;5024367;28;20060;-65
2022/07/19 06:38:21;;;;;;;6.68;4.28;;;;;;;24.38;50.10;99774.44;5025053;28;20056;-65
2022/07/19 06:40:48;;;;;;;8.77;3.90;;;;;;;24.50;51.16;99775.00;5025373;28;20057;-65
2022/07/19 06:43:14;;;;;;;5.53;3.45;;;;;;;24.63;51.32;99762.72;5025595;28;20873;-65
2022/07/19 06:45:41;;;;;;;6.03;3.85;;;;;;;24.78;50.54;99770.97;5024935;28;20141;-64
2022/07/19 06:48:09;;;;;;;13.93;4.45;;;;;;;24.97;50.50;99760.88;5025312;28;20831;-65
2022/07/19 06:50:36;;;;;;;9.20;4.15;;;;;;;25.20;48.83;99771.84;5025264;28;20046;-64
2022/07/19 06:53:03;;;;;;;12.35;6.00;;;;;;;25.38;49.06;99771.69;5025119;28;20880;-65
2022/07/19 06:55:29;;;;;;;12.40;5.38;;;;;;;25.51;47.96;99768.44;5023811;28;20049;-65
2022/07/19 06:57:56;;;;;;;6.53;4.50;;;;;;;25.66;48.57;99769.41;5024536;28;20072;-65
2022/07/19 07:00:23;;;;;;;13.77;5.18;;;;;;;25.80;45.49;99765.16;5024881;28;20053;-65
2022/07/19 07:02:49;;;;;;;9.77;5.40;;;;;;;25.94;44.31;99769.00;5024592;28;20079;-65
2022/07/19 07:05:17;;;;;;;7.25;4.40;;;;;;;26.28;43.05;99766.78;5023980;28;20080;-64
2022/07/19 07:07:44;;;;;;;15.45;4.43;;;;;;;26.55;42.71;99762.75;5024538;28;20140;-65
2022/07/19 07:10:11;;;;;;;10.60;4.53;;;;;;;26.71;43.57;99764.53;5025367;28;20059;-65
2022/07/19 07:12:38;;;;;;;5.82;4.10;;;;;;;26.83;42.51;99764.06;5024858;28;20060;-65
2022/07/19 07:15:07;;;;;;;7.93;5.38;;;;;;;26.99;42.36;99759.38;5024498;28;20053;-65
2022/07/19 07:17:34;;;;;;;6.70;4.30;;;;;;;27.15;39.83;99766.53;5024338;28;20056;-64
2022/07/19 07:20:00;;;;;;;8.73;5.47;;;;;;;27.33;41.13;99768.91;5024607;28;20680;-65
2022/07/19 07:22:28;;;;;;;7.68;4.38;;;;;;;27.52;38.94;99764.84;5024873;28;20057;-65
2022/07/19 07:24:55;;;;;;;7.97;4.10;;;;;;;27.78;39.65;99761.63;5024022;28;20472;-65
2022/07/19 07:27:22;;;;;;;5.97;3.55;;;;;;;28.12;35.39;99765.66;5025178;28;20069;-65
2022/07/19 07:29:48;;;;;;;16.00;3.50;;;;;;;28.51;36.39;99766.34;5024696;28;20045;-65
2022/07/19 07:32:15;;;;;;;13.63;3.55;;;;;;;29.21;31.58;99761.97;5024069;28;20505;-64
2022/07/19 07:34:41;;;;;;;10.15;4.03;;;;;;;29.98;32.35;99752.88;5024751;28;20042;-65
2022/07/19 07:37:08;;;;;;;10.15;4.05;;;;;;;30.29;30.95;99759.69;5024469;28;20041;-65
2022/07/19 07:39:36;;;;;;;8.55;4.90;;;;;;;30.43;30.81;99757.84;5024246;28;20050;-65
2022/07/19 07:42:03;;;;;;;8.10;3.78;;;;;;;30.69;27.99;99763.34;5024291;28;20136;-65
2022/07/19 07:44:30;;;;;;;4.90;2.90;;;;;;;31.19;27.47;99754.81;5023691;28;20144;-65
2022/07/19 07:46:56;;;;;;;9.65;2.80;;;;;;;31.53;26.84;99759.19;5023853;28;20045;-65
2022/07/19 07:49:23;;;;;;;5.88;2.83;;;;;;;31.85;25.44;99751.97;5023978;28;20065;-65
2022/07/19 07:51:50;;;;;;;5.35;3.10;;;;;;;32.12;24.85;99753.75;5024087;28;20052;-65
2022/07/19 07:54:17;;;;;;;4.18;2.63;;;;;;;32.26;24.57;99752.66;5023866;28;20049;-65
2022/07/19 07:56:45;;;;;;;4.50;2.60;;;;;;;32.38;25.04;99747.34;5024162;28;20049;-66
2022/07/19 07:59:11;;;;;;;5.82;2.30;;;;;;;32.50;23.51;99745.63;5024358;28;20412;-66
2022/07/19 08:01:39;;;;;;;7.63;2.67;;;;;;;32.61;23.66;99747.66;5023797;28;20068;-64
2022/07/19 08:04:05;;;;;;;5.32;2.83;;;;;;;32.60;24.28;99743.25;5023407;28;20053;-66
2022/07/19 08:06:32;;;;;;;4.65;2.90;;;;;;;32.80;22.60;99748.53;5023865;28;20049;-65
2022/07/19 08:08:58;;;;;;;5.78;2.58;;;;;;;32.96;23.91;99740.84;5023912;28;20054;-64
2022/07/19 08:11:25;;;;;;;9.25;3.25;;;;;;;33.06;23.62;99742.06;5023558;28;20046;-65
2022/07/19 08:13:53;;;;;;;16.23;6.22;;;;;;;33.21;23.34;99735.44;5023625;28;20152;-65
2022/07/19 08:16:19;;;;;;;8.48;4.10;;;;;;;33.41;21.96;99730.59;5023334;28;20053;-65
2022/07/19 08:18:46;;;;;;;5.20;2.55;;;;;;;33.56;23.16;99733.81;5023281;28;20748;-65
2022/07/19 08:21:12;;;;;;;7.80;3.13;;;;;;;33.72;22.03;99726.91;5023798;28;20045;-65
2022/07/19 08:23:41;;;;;;;8.82;4.25;;;;;;;33.79;22.13;99718.63;5023906;28;20045;-65
2022/07/19 08:26:07;;;;;;;7.65;3.67;;;;;;;33.83;22.19;99722.56;5023105;28;20053;-65
2022/07/19 08:28:34;;;;;;;8.80;4.63;;;;;;;33.86;21.78;99713.91;5023108;28;20055;-65
2022/07/19 08:31:02;;;;;;;8.38;2.95;;;;;;;34.07;20.97;99717.22;5023996;28;20052;-65
2022/07/19 08:33:29;;;;;;;4.07;2.38;;;;;;;34.16;20.87;99713.97;5026342;28;20468;-64
2022/07/19 08:35:55;;;;;;;11.68;4.20;;;;;;;34.18;20.05;99713.72;5026315;28;20050;-64
2022/07/19 08:38:22;;;;;;;6.63;2.95;;;;;;;34.18;20.24;99711.00;5027238;28;20057;-64
2022/07/19 08:40:52;;;;;;;5.60;3.00;;;;;;;34.11;20.46;99707.50;5026641;28;20056;-64
2022/07/19 08:43:20;;;;;;;8.30;2.78;;;;;;;34.15;20.15;99708.72;5027189;28;20050;-64
2022/07/19 08:45:48;;;;;;;4.20;2.20;;;;;;;34.19;20.44;99709.94;5026496;28;20176;-64
2022/07/19 08:48:17;;;;;;;8.63;2.72;;;;;;;34.12;21.16;99704.56;5026934;28;20053;-64
2022/07/19 08:50:46;;;;;;;4.95;2.50;;;;;;;34.23;20.33;99704.81;5026745;28;20054;-64
2022/07/19 08:53:12;;;;;;;4.60;2.70;;;;;;;34.36;20.57;99699.13;5027098;28;20060;-64
2022/07/19 08:55:39;;;;;;;9.68;3.63;;;;;;;34.53;20.72;99707.53;5026867;28;20398;-64
2022/07/19 08:58:06;;;;;;;9.70;4.00;;;;;;;34.80;19.67;99706.06;5017410;28;20053;-64
2022/07/19 09:00:34;;;;;;;6.53;3.55;;;;;;;35.19;19.75;99702.88;5007371;28;20077;-64
2022/07/19 09:03:02;;;;;;;5.35;2.40;;;;;;;35.28;19.15;99697.88;5007003;28;20041;-65
2022/07/19 09:05:33;;;;;;;6.90;3.20;;;;;;;35.51;19.19;99697.84;5006391;28;20469;-65
2022/07/19 09:08:09;;;;;;;5.07;2.58;;;;;;;36.11;18.00;99700.22;5006627;28;20112;-65
2022/07/19 09:10:38;;;;;;;3.88;2.03;;;;;;;36.74;17.42;99694.75;5006995;28;20060;-64
2022/07/19 09:13:07;;;;;;;5.43;2.30;;;;;;;37.14;16.80;99691.00;5006781;28;20045;-65
2022/07/19 09:15:46;;;;;;;7.13;2.97;;;;;;;37.30;17.00;99690.13;5006046;28;20054;-63
2022/07/19 09:18:17;;;;;;;4.72;2.78;;;;;;;37.72;16.22;99686.03;5006538;28;20053;-65
2022/07/19 09:20:45;;;;;;;4.53;2.40;;;;;;;38.19;15.75;99683.56;5007100;28;20046;-65
2022/07/19 09:23:13;;;;;;;5.97;2.67;;;;;;;38.64;15.39;99682.34;5006577;28;20060;-65
2022/07/19 09:25:41;;;;;;;8.88;3.08;;;;;;;39.12;15.11;99684.38;5022982;28;20044;-65
2022/07/19 09:28:09;;;;;;;4.13;2.92;;;;;;;39.65;14.37;99680.53;5026424;28;20065;-65
2022/07/19 09:30:38;;;;;;;4.38;2.40;;;;;;;40.24;14.04;99689.56;5025934;28;20075;-65
2022/07/19 09:33:10;;;;;;;4.18;2.70;;;;;;;40.35;14.54;99681.00;5026270;28;20061;-65
2022/07/19 09:35:40;;;;;;;6.78;2.45;;;;;;;41.09;13.22;99680.72;5026038;28;20053;-66
2022/07/19 09:38:26;;;;;;;4.63;2.70;;;;;;;41.68;13.26;99677.25;5026244;28;20144;-65
2022/07/19 09:40:54;;;;;;;23.05;3.10;;;;;;;41.74;12.51;99672.50;5026177;28;20041;-64
2022/07/19 09:43:25;;;;;;;4.75;3.20;;;;;;;41.95;12.81;99660.25;5025832;28;20580;-66
2022/07/19 09:45:52;;;;;;;4.43;2.90;;;;;;;42.43;12.04;99662.41;5025102;28;20045;-66
2022/07/19 09:48:19;;;;;;;6.10;2.97;;;;;;;42.77;11.76;99659.59;5025363;28;20805;-65
2022/07/19 09:50:48;;;;;;;6.00;3.50;;;;;;;42.98;12.46;99656.66;5025709;28;20043;-65
2022/07/19 09:53:16;;;;;;;8.35;2.92;;;;;;;43.25;11.48;99658.91;5025767;28;20053;-65
2022/07/19 09:55:44;;;;;;;5.65;2.78;;;;;;;43.34;10.83;99657.09;5025109;28;20049;-65
2022/07/19 09:58:11;;;;;;;4.85;2.72;;;;;;;43.22;11.15;99654.75;5026232;28;20046;-65
2022/07/19 10:00:38;;;;;;;3.90;2.80;;;;;;;42.35;11.26;99661.06;5026032;28;20432;-65
2022/07/19 10:03:08;;;;;;;5.63;2.90;;;;;;;41.90;11.61;99653.88;5025644;28;20057;-65
2022/07/19 10:05:35;;;;;;;6.95;3.10;;;;;;;41.90;11.50;99656.66;5024694;28;20056;-65
2022/07/19 10:08:02;;;;;;;4.70;3.15;;;;;;;42.52;11.82;99648.75;5025439;28;20057;-65
2022/07/19 10:10:31;;;;;;;6.95;3.50;;;;;;;42.19;11.49;99649.28;5025335;28;20060;-67
2022/07/19 10:12:59;;;;;;;5.10;2.90;;;;;;;41.79;11.66;99651.16;5021197;28;20060;-66
2022/07/19 10:15:27;;;;;;;7.55;3.17;;;;;;;42.32;10.96;99652.50;5023183;28;20706;-66
2022/07/19 10:18:10;;;;;;;4.63;3.00;;;;;;;42.89;10.64;99646.19;5024658;28;20123;-67
2022/07/19 10:20:38;;;;;;;8.38;3.05;;;;;;;43.11;10.33;99639.31;5023114;28;20053;-65
2022/07/19 10:23:06;;;;;;;6.38;2.90;;;;;;;43.09;10.75;99633.22;5025249;28;20620;-65
2022/07/19 10:25:41;;;;;;;7.97;2.85;;;;;;;43.22;10.96;99637.25;5024807;28;21054;-65
2022/07/19 10:28:32;;;;;;;5.55;2.88;;;;;;;43.65;10.42;99640.09;5025564;28;20055;-64
2022/07/19 10:30:59;;;;;;;6.57;3.50;;;;;;;43.62;9.92;99638.72;5025176;28;20049;-65
2022/07/19 10:33:29;;;;;;;8.00;4.18;;;;;;;43.46;9.99;99628.91;5025096;28;20131;-65
2022/07/19 10:35:55;;;;;;;4.88;2.97;;;;;;;43.00;10.08;99627.50;5024399;28;20056;-65
2022/07/19 10:38:22;;;;;;;9.93;3.30;;;;;;;43.24;10.52;99629.47;5025267;28;20049;-65
2022/07/19 10:40:51;;;;;;;4.43;3.38;;;;;;;43.53;10.20;99621.06;5024667;28;20064;-65
2022/07/19 10:43:18;;;;;;;5.28;2.97;;;;;;;43.41;10.26;99621.47;5024483;28;20592;-66
2022/07/19 10:46:10;;;;;;;6.05;3.20;;;;;;;43.56;10.19;99617.66;5024094;28;20045;-64
2022/07/19 10:48:38;;;;;;;3.83;2.70;;;;;;;43.44;10.26;99614.50;5024358;28;20056;-65
2022/07/19 10:51:06;;;;;;;5.47;2.78;;;;;;;43.71;9.34;99600.00;5024438;28;20057;-66
2022/07/19 10:53:57;;;;;;;6.65;3.00;;;;;;;43.29;9.13;99604.44;5024297;28;20056;-64
2022/07/19 10:56:33;;;;;;;7.40;3.10;;;;;;;42.99;9.16;99603.66;5023926;28;20077;-65
2022/07/19 10:59:01;;;;;;;3.70;2.55;;;;;;;43.07;9.31;99604.94;5007545;28;20049;-67
2022/07/19 11:01:32;;;;;;;7.95;3.15;;;;;;;42.64;9.24;99605.66;5005128;28;20061;-65
2022/07/19 11:04:30;;;;;;;4.85;2.83;;;;;;;42.44;9.29;99603.91;5004078;28;20046;-65
2022/07/19 11:07:17;;;;;;;11.05;2.72;;;;;;;41.82;9.96;99595.22;5004342;28;20050;-66
2022/07/19 11:09:46;;;;;;;7.07;2.50;;;;;;;40.88;9.66;99588.66;5004403;28;20055;-66
2022/07/19 11:12:30;;;;;;;5.50;2.97;;;;;;;39.77;10.22;99594.69;5004394;28;20053;-66
2022/07/19 11:14:58;;;;;;;5.07;2.60;;;;;;;39.11;11.14;99591.69;5003861;28;20065;-65
2022/07/19 11:17:26;;;;;;;4.88;2.53;;;;;;;38.91;11.28;99582.22;5018044;28;20057;-65
2022/07/19 11:20:00;;;;;;;5.28;2.30;;;;;;;39.12;11.34;99585.09;5024175;28;20058;-65
2022/07/19 11:22:27;;;;;;;4.78;2.67;;;;;;;38.98;11.75;99573.72;5024337;28;20049;-65
2022/07/19 11:24:55;;;;;;;6.72;2.63;;;;;;;38.99;11.54;99562.44;5014418;28;20420;-64
2022/07/19 11:27:21;;;;;;;4.53;2.50;;;;;;;38.89;11.71;99573.38;5024708;28;20060;-66
2022/07/19 11:29:54;;;;;;;4.05;2.28;;;;;;;38.68;12.27;99568.84;5024202;28;20056;-64
2022/07/19 11:32:21;;;;;;;6.78;2.90;;;;;;;38.51;11.29;99567.06;5024107;28;20111;-66
2022/07/19 11:34:58;;;;;;;4.30;2.80;;;;;;;38.24;11.93;99554.16;5023433;28;20053;-66
2022/07/19 11:37:26;;;;;;;10.93;3.60;;;;;;;38.19;12.25;99556.88;5023594;28;20046;-66
2022/07/19 11:39:53;;;;;;;11.98;3.72;;;;;;;38.12;11.70;99558.19;5024059;28;20046;-65